Lee Vining, CA

8:03 PM PST on December 04, 2016 (GMT -0800)
At Mono Lake Committee | | Change Station

Elev 6788 ft 37.96 °N, 119.12 °W | Updated 3 minutes ago

Clear
Clear
46.8 °F
Feels Like 44 °F
N
6.0
Wind Variable Wind from SSE
Gusts 18.0 mph

Today
High -- | Low -- °F
--% Chance of Precip.
Yesterday
High -- | Low -- °F
Precip. -- in
Pressure 30.09 in
Visibility 10.0 miles
Clouds Clear
Windchill 44 °F
Dew Point 17 °F
Humidity 30%
Rainfall 0.00 in
Snow Depth Not available.
6:56 AM 4:36 PM
Waxing Crescent, 28% visible
METAR KMMH 050355Z AUTO 25016G22KT 10SM CLR 10/M11 A3009 RMK AO2 T00951115
Pressure 30.09 in
Visibility 10.0 miles
Clouds Clear
Windchill 44 °F
Dew Point 17 °F
Humidity 30%
Rainfall 0.00 in
Snow Depth Not available.
6:56 AM 4:36 PM
Waxing Crescent, 28% visible
METAR KMMH 050355Z AUTO 25016G22KT 10SM CLR 10/M11 A3009 RMK AO2 T00951115

10-Day Weather Forecast

Almanac

Astronomy

Dec. 04, 2016 Rise Set
Actual Time
Civil Twilight
Nautical Twilight
Astronomical Twilight
Moon
Length of Visible Light
Length of Day
Tomorrow will be .
, % of the Moon is Illuminated

Today's Extremes

State Highs State Lows

Community

WunderPhotos

Upload Photos

1,955,757 photos uploaded!

WunderBlog® & News

Nearby

Air Quality

  Air Quality AQ Index Pollutant
Not available.

Snow Depth

Station Depth Elevation

Earthquake Activity

City Distance Mag. Time & Date
Minimum magnitude displayed is 2.5.

Coastal Water Temperatures

Place Temperature

Stations

Nearby Weather Stations

Station Location Temp. Windchill Dew Point Humidity Wind Precip. Elev Updated Type
                   

Watches & Warnings

There are currently no watches in effect.